Test XHTML 1.0 Strict Page for WU-History Testing
Station Historical Data
 
Daily Summary for April 18, 2015 Units:  Both    English   Metric
« Previous Day
Next Day »
Daily Weekly Monthly Yearly Custom
  Current: High: Low: Average:
Temperature: 42.6 °F /  5.9 °C 42.6 °F /  5.9 °C 37.0 °F /  2.8 °C 39.3 °F /  4.1 °C
Dew Point: 38.1 °F /  3.4 °C 38.6 °F /  3.7 °C 35.2 °F /  1.8 °C 36.8 °F /  2.7 °C
Humidity: 84% 95% 84% 91%
Wind Speed: 8.1mph /  13km/h 11.5mph /  18.5km/h - 4.8mph /  7.7km/h
Wind Gust: 8.1mph /  13km/h 11.5mph /  18.5km/h - -
WindNE - - East
Pressure: 30.43 in /  1030.4 hPa 30.44 in /  1030.7 hPa 30.37 in /  1028.3 hPa -
Precipitation: 0.00 in /  0 mm      
Historical Graphs
 
 
Weather-Above Climate History
Untitled
Tabular Data for April 18, 2015
Time Temperature Dew Point Pressure Wind Wind Speed Wind Gust Humidity Rainfall Rate (Hourly)
00:02 41.4 °F /  5.2 °C 38.6 °F /  3.7 °C 30.38in /  1028.7hPa ENE 3.5mph /  5.6km/h 3.5mph /  5.6km/h 90% 0.00in /  0cm
00:07 41.2 °F /  5.1 °C 38.2 °F /  3.4 °C 30.38in /  1028.7hPa ENE 8.1mph /  13km/h 8.1mph /  13km/h 89% 0.00in /  0cm
00:12 41.4 °F /  5.2 °C 38.1 °F /  3.4 °C 30.38in /  1028.7hPa NE 6.9mph /  11.1km/h 6.9mph /  11.1km/h 88% 0.00in /  0cm
00:17 41.4 °F /  5.2 °C 37.8 °F /  3.2 °C 30.37in /  1028.3hPa NE 4.6mph /  7.4km/h 4.6mph /  7.4km/h 87% 0.00in /  0cm
00:22 41.4 °F /  5.2 °C 38.1 °F /  3.4 °C 30.38in /  1028.7hPa NE 5.8mph /  9.3km/h 5.8mph /  9.3km/h 88% 0.00in /  0cm
00:27 41.2 °F /  5.1 °C 37.6 °F /  3.1 °C 30.38in /  1028.7hPa ENE 4.8mph /  7.7km/h 4.8mph /  7.7km/h 87% 0.00in /  0cm
00:32 41.0 °F /  5 °C 37.4 °F /  3 °C 30.38in /  1028.7hPa East 5.8mph /  9.3km/h 5.8mph /  9.3km/h 87% 0.00in /  0cm
00:37 40.8 °F /  4.9 °C 37.5 °F /  3.1 °C 30.38in /  1028.7hPa East 5.8mph /  9.3km/h 5.8mph /  9.3km/h 88% 0.00in /  0cm
00:42 40.6 °F /  4.8 °C 37.4 °F /  3 °C 30.38in /  1028.7hPa ENE 5.8mph /  9.3km/h 5.8mph /  9.3km/h 88% 0.00in /  0cm
00:47 40.8 °F /  4.9 °C 37.5 °F /  3.1 °C 30.38in /  1028.7hPa NE 7.3mph /  11.7km/h 7.3mph /  11.7km/h 88% 0.00in /  0cm
00:52 41.0 °F /  5 °C 37.7 °F /  3.2 °C 30.38in /  1028.7hPa ENE 8.1mph /  13km/h 8.1mph /  13km/h 88% 0.00in /  0cm
01:02 40.8 °F /  4.9 °C 37.5 °F /  3.1 °C 30.38in /  1028.7hPa ENE 1.3mph /  2.1km/h 1.3mph /  2.1km/h 88% 0.00in /  0cm
01:07 39.9 °F /  4.4 °C 36.9 °F /  2.7 °C 30.39in /  1029hPa Calm   0.3mph /  0.5km/h 89% 0.00in /  0cm
01:12 39.4 °F /  4.1 °C 36.7 °F /  2.6 °C 30.39in /  1029hPa ENE 2.3mph /  3.7km/h 2.3mph /  3.7km/h 90% 0.00in /  0cm
01:17 39.9 °F /  4.4 °C 37.5 °F /  3.1 °C 30.39in /  1029hPa SSW 2.3mph /  3.7km/h 2.3mph /  3.7km/h 91% 0.00in /  0cm
01:22 40.1 °F /  4.5 °C 37.4 °F /  3 °C 30.39in /  1029hPa ESE 2.3mph /  3.7km/h 2.3mph /  3.7km/h 90% 0.00in /  0cm
01:28 40.1 °F /  4.5 °C 37.4 °F /  3 °C 30.39in /  1029hPa WNW 4.3mph /  6.9km/h 4.3mph /  6.9km/h 90% 0.00in /  0cm
01:33 40.1 °F /  4.5 °C 37.4 °F /  3 °C 30.39in /  1029hPa NE 3.5mph /  5.6km/h 3.5mph /  5.6km/h 90% 0.00in /  0cm
01:38 40.1 °F /  4.5 °C 37.4 °F /  3 °C 30.39in /  1029hPa East 3.5mph /  5.6km/h 3.5mph /  5.6km/h 90% 0.00in /  0cm
01:43 39.9 °F /  4.4 °C 37.2 °F /  2.9 °C 30.39in /  1029hPa ENE 4.6mph /  7.4km/h 4.6mph /  7.4km/h 90% 0.00in /  0cm
01:48 39.6 °F /  4.2 °C 36.6 °F /  2.6 °C 30.39in /  1029hPa ENE 3.5mph /  5.6km/h 3.5mph /  5.6km/h 89% 0.00in /  0cm
01:53 39.0 °F /  3.9 °C 36.1 °F /  2.3 °C 30.39in /  1029hPa Calm     89% 0.00in /  0cm
01:58 39.4 °F /  4.1 °C 36.7 °F /  2.6 °C 30.39in /  1029hPa NNW 6.5mph /  10.5km/h 6.5mph /  10.5km/h 90% 0.00in /  0cm
02:03 39.6 °F /  4.2 °C 36.9 °F /  2.7 °C 30.39in /  1029hPa ENE 4.6mph /  7.4km/h 4.6mph /  7.4km/h 90% 0.00in /  0cm
02:08 39.2 °F /  4 °C 36.5 °F /  2.5 °C 30.39in /  1029hPa SSE 2.3mph /  3.7km/h 2.3mph /  3.7km/h 90% 0.00in /  0cm
02:13 38.7 °F /  3.7 °C 36.0 °F /  2.2 °C 30.39in /  1029hPa NNE 4.7mph /  7.6km/h 4.7mph /  7.6km/h 90% 0.00in /  0cm
02:18 39.0 °F /  3.9 °C 36.6 °F /  2.6 °C 30.39in /  1029hPa ENE 2.3mph /  3.7km/h 2.3mph /  3.7km/h 91% 0.00in /  0cm
02:23 39.0 °F /  3.9 °C 36.6 °F /  2.6 °C 30.40in /  1029.3hPa Calm     91% 0.00in /  0cm
02:28 38.7 °F /  3.7 °C 36.3 °F /  2.4 °C 30.39in /  1029hPa ENE 4.8mph /  7.7km/h 4.8mph /  7.7km/h 91% 0.00in /  0cm
02:33 38.3 °F /  3.5 °C 36.2 °F /  2.3 °C 30.40in /  1029.3hPa NNE 7.0mph /  11.3km/h 7.0mph /  11.3km/h 92% 0.00in /  0cm
02:38 38.8 °F /  3.8 °C 36.7 °F /  2.6 °C 30.40in /  1029.3hPa SW 2.3mph /  3.7km/h 2.3mph /  3.7km/h 92% 0.00in /  0cm
02:43 38.3 °F /  3.5 °C 36.2 °F /  2.3 °C 30.40in /  1029.3hPa ENE 1.2mph /  1.9km/h 1.2mph /  1.9km/h 92% 0.00in /  0cm
02:48 37.6 °F /  3.1 °C 35.7 °F /  2.1 °C 30.40in /  1029.3hPa Calm     93% 0.00in /  0cm
02:53 37.4 °F /  3 °C 35.6 °F /  2 °C 30.40in /  1029.3hPa Calm     93% 0.00in /  0cm
02:58 37.8 °F /  3.2 °C 35.9 °F /  2.2 °C 30.40in /  1029.3hPa East 4.6mph /  7.4km/h 4.6mph /  7.4km/h 93% 0.00in /  0cm
03:03 38.1 °F /  3.4 °C 36.5 °F /  2.5 °C 30.40in /  1029.3hPa East 5.8mph /  9.3km/h 5.8mph /  9.3km/h 94% 0.00in /  0cm
03:08 38.3 °F /  3.5 °C 36.7 °F /  2.6 °C 30.40in /  1029.3hPa SE 2.3mph /  3.7km/h   94% 0.00in /  0cm
03:13 38.3 °F /  3.5 °C 36.7 °F /  2.6 °C 30.40in /  1029.3hPa North 2.7mph /  4.3km/h 2.7mph /  4.3km/h 94% 0.00in /  0cm
03:18 38.1 °F /  3.4 °C 36.5 °F /  2.5 °C 30.40in /  1029.3hPa East 4.6mph /  7.4km/h 4.6mph /  7.4km/h 94% 0.00in /  0cm
03:23 37.8 °F /  3.2 °C 36.2 °F /  2.3 °C 30.40in /  1029.3hPa Calm     94% 0.00in /  0cm
03:28 37.4 °F /  3 °C 35.8 °F /  2.1 °C 30.40in /  1029.3hPa Calm     94% 0.00in /  0cm
03:33 37.2 °F /  2.9 °C 35.7 °F /  2.1 °C 30.40in /  1029.3hPa NE 4.2mph /  6.8km/h 4.2mph /  6.8km/h 94% 0.00in /  0cm
03:38 37.2 °F /  2.9 °C 35.7 °F /  2.1 °C 30.40in /  1029.3hPa NNE 2.3mph /  3.7km/h 2.3mph /  3.7km/h 94% 0.00in /  0cm
03:43 37.0 °F /  2.8 °C 35.2 °F /  1.8 °C 30.40in /  1029.3hPa ENE 6.1mph /  9.8km/h 6.1mph /  9.8km/h 93% 0.00in /  0cm
03:48 37.4 °F /  3 °C 35.8 °F /  2.1 °C 30.40in /  1029.3hPa SSE 2.3mph /  3.7km/h   94% 0.00in /  0cm
03:53 37.6 °F /  3.1 °C 36.3 °F /  2.4 °C 30.40in /  1029.3hPa ENE 2.3mph /  3.7km/h   95% 0.00in /  0cm
03:58 38.1 °F /  3.4 °C 36.8 °F /  2.7 °C 30.40in /  1029.3hPa NNE 3.5mph /  5.6km/h 3.5mph /  5.6km/h 95% 0.00in /  0cm
04:03 39.0 °F /  3.9 °C 37.7 °F /  3.2 °C 30.40in /  1029.3hPa SE 2.3mph /  3.7km/h 2.3mph /  3.7km/h 95% 0.00in /  0cm
04:08 39.2 °F /  4 °C 37.6 °F /  3.1 °C 30.40in /  1029.3hPa NNE 3.5mph /  5.6km/h 3.5mph /  5.6km/h 94% 0.00in /  0cm
04:13 39.0 °F /  3.9 °C 37.4 °F /  3 °C 30.40in /  1029.3hPa NE 6.9mph /  11.1km/h 6.9mph /  11.1km/h 94% 0.00in /  0cm
04:18 39.2 °F /  4 °C 37.3 °F /  2.9 °C 30.40in /  1029.3hPa North 5.4mph /  8.7km/h 5.4mph /  8.7km/h 93% 0.00in /  0cm
04:23 39.6 °F /  4.2 °C 37.7 °F /  3.2 °C 30.40in /  1029.3hPa SSE 3.5mph /  5.6km/h 3.5mph /  5.6km/h 93% 0.00in /  0cm
04:28 39.2 °F /  4 °C 37.3 °F /  2.9 °C 30.40in /  1029.3hPa NE 5.8mph /  9.3km/h 5.8mph /  9.3km/h 93% 0.00in /  0cm
04:33 39.6 °F /  4.2 °C 37.4 °F /  3 °C 30.40in /  1029.3hPa NNE 2.3mph /  3.7km/h 2.3mph /  3.7km/h 92% 0.00in /  0cm
04:38 39.2 °F /  4 °C 37.1 °F /  2.8 °C 30.40in /  1029.3hPa ENE 9.2mph /  14.8km/h 9.2mph /  14.8km/h 92% 0.00in /  0cm
04:43 39.2 °F /  4 °C 36.8 °F /  2.7 °C 30.40in /  1029.3hPa ESE 5.8mph /  9.3km/h   91% 0.00in /  0cm
04:48 38.7 °F /  3.7 °C 36.3 °F /  2.4 °C 30.40in /  1029.3hPa South 1.9mph /  3.1km/h 1.9mph /  3.1km/h 91% 0.00in /  0cm
04:53 38.5 °F /  3.6 °C 36.4 °F /  2.4 °C 30.40in /  1029.3hPa East 5.8mph /  9.3km/h 5.8mph /  9.3km/h 92% 0.00in /  0cm
04:58 38.7 °F /  3.7 °C 36.5 °F /  2.5 °C 30.40in /  1029.3hPa WNW 4.6mph /  7.4km/h 4.6mph /  7.4km/h 92% 0.00in /  0cm
05:03 38.3 °F /  3.5 °C 36.2 °F /  2.3 °C 30.40in /  1029.3hPa SSE 3.5mph /  5.6km/h 3.5mph /  5.6km/h 92% 0.00in /  0cm
05:08 37.8 °F /  3.2 °C 35.6 °F /  2 °C 30.41in /  1029.7hPa NE 3.5mph /  5.6km/h 3.5mph /  5.6km/h 92% 0.00in /  0cm
05:13 37.4 °F /  3 °C 35.3 °F /  1.8 °C 30.40in /  1029.3hPa NNE 6.9mph /  11.1km/h 6.9mph /  11.1km/h 92% 0.00in /  0cm
05:18 37.6 °F /  3.1 °C 35.7 °F /  2.1 °C 30.40in /  1029.3hPa NNW 1.2mph /  1.9km/h 1.2mph /  1.9km/h 93% 0.00in /  0cm
05:23 37.9 °F /  3.3 °C 36.1 °F /  2.3 °C 30.40in /  1029.3hPa ESE 8.1mph /  13km/h 8.1mph /  13km/h 93% 0.00in /  0cm
05:28 38.7 °F /  3.7 °C 36.5 °F /  2.5 °C 30.40in /  1029.3hPa SSE 5.8mph /  9.3km/h 5.8mph /  9.3km/h 92% 0.00in /  0cm
05:33 38.3 °F /  3.5 °C 36.2 °F /  2.3 °C 30.40in /  1029.3hPa ENE 5.8mph /  9.3km/h 5.8mph /  9.3km/h 92% 0.00in /  0cm
05:38 38.7 °F /  3.7 °C 36.5 °F /  2.5 °C 30.40in /  1029.3hPa NE 8.1mph /  13km/h 8.1mph /  13km/h 92% 0.00in /  0cm
05:43 38.8 °F /  3.8 °C 36.7 °F /  2.6 °C 30.40in /  1029.3hPa ESE 8.1mph /  13km/h 8.1mph /  13km/h 92% 0.00in /  0cm
05:48 38.7 °F /  3.7 °C 36.5 °F /  2.5 °C 30.40in /  1029.3hPa NNE 5.1mph /  8.2km/h 5.1mph /  8.2km/h 92% 0.00in /  0cm
05:53 38.5 °F /  3.6 °C 36.1 °F /  2.3 °C 30.40in /  1029.3hPa ENE 5.8mph /  9.3km/h 5.8mph /  9.3km/h 91% 0.00in /  0cm
05:58 38.1 °F /  3.4 °C 35.7 °F /  2.1 °C 30.40in /  1029.3hPa North 1.2mph /  1.9km/h 1.3mph /  2.1km/h 91% 0.00in /  0cm
06:03 37.9 °F /  3.3 °C 35.8 °F /  2.1 °C 30.40in /  1029.3hPa ENE 4.6mph /  7.4km/h 4.6mph /  7.4km/h 92% 0.00in /  0cm
06:08 38.3 °F /  3.5 °C 36.2 °F /  2.3 °C 30.40in /  1029.3hPa NNE 3.5mph /  5.6km/h 3.5mph /  5.6km/h 92% 0.00in /  0cm
06:13 38.3 °F /  3.5 °C 36.2 °F /  2.3 °C 30.40in /  1029.3hPa NE 3.5mph /  5.6km/h 3.5mph /  5.6km/h 92% 0.00in /  0cm
06:18 37.9 °F /  3.3 °C 35.8 °F /  2.1 °C 30.40in /  1029.3hPa SSE 5.8mph /  9.3km/h 5.8mph /  9.3km/h 92% 0.00in /  0cm
06:23 37.9 °F /  3.3 °C 35.8 °F /  2.1 °C 30.41in /  1029.7hPa ESE 1.2mph /  1.9km/h 1.2mph /  1.9km/h 92% 0.00in /  0cm
06:28 37.4 °F /  3 °C 35.3 °F /  1.8 °C 30.41in /  1029.7hPa NNE 3.5mph /  5.6km/h 3.5mph /  5.6km/h 92% 0.00in /  0cm
06:33 37.4 °F /  3 °C 35.3 °F /  1.8 °C 30.41in /  1029.7hPa NNE 3.5mph /  5.6km/h 3.5mph /  5.6km/h 92% 0.00in /  0cm
06:38 37.6 °F /  3.1 °C 35.7 °F /  2.1 °C 30.41in /  1029.7hPa SSW 5.8mph /  9.3km/h 5.8mph /  9.3km/h 93% 0.00in /  0cm
06:43 38.1 °F /  3.4 °C 36.3 °F /  2.4 °C 30.42in /  1030hPa SE 6.9mph /  11.1km/h 6.9mph /  11.1km/h 93% 0.00in /  0cm
06:48 38.8 °F /  3.8 °C 37.0 °F /  2.8 °C 30.42in /  1030hPa NNE 5.8mph /  9.3km/h 5.8mph /  9.3km/h 93% 0.00in /  0cm
06:53 39.4 °F /  4.1 °C 37.2 °F /  2.9 °C 30.42in /  1030hPa NE 6.6mph /  10.6km/h 6.6mph /  10.6km/h 92% 0.00in /  0cm
06:58 39.7 °F /  4.3 °C 37.3 °F /  2.9 °C 30.42in /  1030hPa NNW 6.9mph /  11.1km/h 6.9mph /  11.1km/h 91% 0.00in /  0cm
07:03 39.9 °F /  4.4 °C 37.5 °F /  3.1 °C 30.42in /  1030hPa ENE 7.0mph /  11.3km/h 7.0mph /  11.3km/h 91% 0.00in /  0cm
07:08 40.3 °F /  4.6 °C 37.6 °F /  3.1 °C 30.42in /  1030hPa ENE 10.4mph /  16.7km/h 10.4mph /  16.7km/h 90% 0.00in /  0cm
07:13 40.5 °F /  4.7 °C 37.5 °F /  3.1 °C 30.42in /  1030hPa ENE 9.2mph /  14.8km/h 9.2mph /  14.8km/h 89% 0.00in /  0cm
07:18 40.6 °F /  4.8 °C 37.7 °F /  3.2 °C 30.42in /  1030hPa ENE 8.1mph /  13km/h 8.1mph /  13km/h 89% 0.00in /  0cm
07:23 40.8 °F /  4.9 °C 37.5 °F /  3.1 °C 30.42in /  1030hPa ENE 4.6mph /  7.4km/h 4.6mph /  7.4km/h 88% 0.00in /  0cm
07:28 41.0 °F /  5 °C 37.7 °F /  3.2 °C 30.42in /  1030hPa ENE 6.9mph /  11.1km/h 6.9mph /  11.1km/h 88% 0.00in /  0cm
07:33 41.0 °F /  5 °C 37.7 °F /  3.2 °C 30.42in /  1030hPa East 6.9mph /  11.1km/h 6.9mph /  11.1km/h 88% 0.00in /  0cm
07:38 41.4 °F /  5.2 °C 37.8 °F /  3.2 °C 30.42in /  1030hPa NE 9.2mph /  14.8km/h 9.2mph /  14.8km/h 87% 0.00in /  0cm
07:43 41.4 °F /  5.2 °C 37.8 °F /  3.2 °C 30.43in /  1030.4hPa ENE 9.9mph /  15.9km/h 9.9mph /  15.9km/h 87% 0.00in /  0cm
07:48 41.7 °F /  5.4 °C 37.8 °F /  3.2 °C 30.43in /  1030.4hPa ENE 6.9mph /  11.1km/h 6.9mph /  11.1km/h 86% 0.00in /  0cm
07:53 42.1 °F /  5.6 °C 38.2 °F /  3.4 °C 30.43in /  1030.4hPa ENE 11.5mph /  18.5km/h 11.5mph /  18.5km/h 86% 0.00in /  0cm
07:58 42.3 °F /  5.7 °C 38.1 °F /  3.4 °C 30.44in /  1030.7hPa NNW 9.2mph /  14.8km/h 9.2mph /  14.8km/h 85% 0.00in /  0cm
08:03 42.4 °F /  5.8 °C 38.2 °F /  3.4 °C 30.43in /  1030.4hPa NNE 6.9mph /  11.1km/h 6.9mph /  11.1km/h 85% 0.00in /  0cm
08:08 42.6 °F /  5.9 °C 38.1 °F /  3.4 °C 30.43in /  1030.4hPa NE 8.1mph /  13km/h 8.1mph /  13km/h 84% 0.00in /  0cm
Wether-Above
Compliments of Weather Underground
Welcome to Weather-Above
Cheddleton weather station supplies various organisations with data from our weather station one of them is the weather Underground this information displayed here is coming from the weather Underground server 

If any information is used please acknowledge the source to www weather-above.com or weather Underground